Ville De Bordeaux — FZCE — position and weather

sailwx.info

Track history (hours):
 
Tides and Currents Weather Stations Pressure Air Temp Water Temp Dewpoint Dewpoint Depression Visibility Wind Speed Wind Dir Waves Ship Positions

Ville De Bordeaux

Last reported at 2017-Oct-17 07:16 UTC. Time now 2017-Oct-17 07:46 UTC.
Position N 47°17' W 002°10'.

Length 150 m; beam 24 m.

Type: Ship. MMSI: 228084000.

Date/timePositionNaut miles runAvg speedWind from/ knotsBaromVisibWave heightAir tempDewpointWater temp
2017-Oct-17 07:16N 47°17' W 002°10'0 0.0
2017-Oct-17 06:52N 47°17' W 002°10'0 0.0
2017-Oct-17 06:28N 47°17' W 002°10'0 0.0
2017-Oct-17 05:58N 47°17' W 002°10'0 0.0
2017-Oct-17 05:22N 47°17' W 002°10'0 0.0
2017-Oct-17 04:52N 47°17' W 002°10'0 0.0
2017-Oct-17 04:28N 47°17' W 002°10'0 0.0
2017-Oct-17 03:52N 47°17' W 002°10'0 0.0
2017-Oct-17 03:28N 47°17' W 002°10'0 0.0
2017-Oct-17 02:58N 47°17' W 002°10'0 0.0
2017-Oct-17 02:22N 47°17' W 002°10'0 0.0
2017-Oct-17 01:58N 47°17' W 002°10'0 0.0
2017-Oct-17 01:28N 47°17' W 002°10'0 0.0
2017-Oct-17 00:58N 47°17' W 002°10'0 0.0
2017-Oct-17 00:28N 47°17' W 002°10'0 0.0
2017-Oct-16 23:52N 47°17' W 002°10'0 0.0
2017-Oct-16 23:28N 47°17' W 002°10'0 0.0
2017-Oct-16 22:58N 47°17' W 002°10'0 0.0
2017-Oct-16 22:28N 47°17' W 002°10'0 0.0
2017-Oct-16 21:58N 47°17' W 002°10'0 0.0
2017-Oct-16 21:28N 47°17' W 002°10'0 0.0
2017-Oct-16 20:52N 47°17' W 002°10'0 0.0
2017-Oct-16 20:28N 47°17' W 002°10'0 0.0
2017-Oct-16 19:58N 47°17' W 002°10'0 0.0
2017-Oct-16 19:28N 47°17' W 002°10'0 0.0
2017-Oct-16 18:58N 47°17' W 002°10'0 0.0
2017-Oct-16 18:22N 47°17' W 002°10'0 0.0
2017-Oct-16 17:04N 47°17' W 002°10'0 0.0
2017-Oct-16 16:52N 47°17' W 002°10'0 0.0
2017-Oct-16 16:04N 47°17' W 002°10'0 0.0
2017-Oct-16 15:58N 47°17' W 002°10'0 0.0
2017-Oct-16 08:04N 47°17' W 002°10'0 0.0
2017-Oct-16 07:34N 47°17' W 002°10'0 0.0
2017-Oct-16 07:16N 47°17' W 002°10'0 0.0
2017-Oct-16 05:58N 47°17' W 002°10'0 0.0
2017-Oct-16 05:16N 47°17' W 002°10'0 0.0
2017-Oct-16 04:59N 47°17' W 002°10'0 0.1
2017-Oct-16 04:30N 47°17' W 002°10'510.2
2017-Oct-16 04:00N 47°14' W 002°16'814.7
2017-Oct-16 03:30N 47°08' W 002°21'5 9.8
2017-Oct-16 03:01N 47°04' W 002°26'5 9.8
2017-Oct-16 02:30N 47°02' W 002°33'510.0
2017-Oct-16 02:00N 46°60' W 002°40'510.7
2017-Oct-16 01:30N 47°02' W 002°47'4 8.7
2017-Oct-16 01:00N 47°04' W 002°53'5 9.9
2017-Oct-16 00:30N 47°06' W 002°59'5 9.9
2017-Oct-15 23:58N 47°08' W 003°06'510.2
2017-Oct-15 23:27N 47°11' W 003°13'510.3
2017-Oct-15 23:00N 47°13' W 003°19'5 9.9
2017-Oct-15 22:31N 47°15' W 003°25'5 9.9
2017-Oct-15 22:01N 47°18' W 003°31'510.0
2017-Oct-15 21:30N 47°21' W 003°38'510.2
2017-Oct-15 21:00N 47°24' W 003°44'510.2
2017-Oct-15 20:31N 47°26' W 003°50'612.0
2017-Oct-15 20:00N 47°30' W 003°58'5 9.9
2017-Oct-15 19:31N 47°32' W 004°04'611.3
2017-Oct-15 19:01N 47°35' W 004°11'611.1
2017-Oct-15 18:31N 47°38' W 004°18'611.0
2017-Oct-15 18:00N 47°41' W 004°25'611.3
2017-Oct-15 17:31N 47°44' W 004°32'611.4
2017-Oct-15 17:00N 47°47' W 004°39'611.5
2017-Oct-15 16:30N 47°51' W 004°46'611.1
2017-Oct-15 16:00N 47°54' W 004°53'815.3
2017-Oct-15 15:30N 47°58' W 005°02'917.2
2017-Oct-15 15:00N 48°03' W 005°13'1616.4
2017-Oct-15 14:00N 48°15' W 005°30'1816.0
2017-Oct-15 12:54N 48°28' W 005°49'2713.4
2017-Oct-15 10:53N 48°54' W 005°41'3114.0
2017-Oct-15 08:40N 49°17' W 005°10'213.5
2017-Oct-15 08:30N 49°15' W 005°12'510.1
2017-Oct-15 08:00N 49°15' W 005°04'917.4
2017-Oct-15 07:31N 49°18' W 004°52'917.9
2017-Oct-15 07:00N 49°23' W 004°40'917.8
2017-Oct-15 06:29N 49°26' W 004°27'917.7
2017-Oct-15 05:59N 49°30' W 004°14'917.4
2017-Oct-15 05:28N 49°34' W 004°02'817.1
2017-Oct-15 05:00N 49°38' W 003°52'816.7
2017-Oct-15 04:30N 49°42' W 003°40'816.3
2017-Oct-15 03:59N 49°47' W 003°29'2415.6
2017-Oct-15 02:27N 49°59' W 002°57'715.1
2017-Oct-15 02:00N 50°00' W 002°47'2014.0
2017-Oct-15 00:34N 50°07' W 002°17'114.6
2017-Oct-15 00:30N 50°07' W 002°16'4015.9
2017-Oct-14 22:00N 50°19' W 001°17'1016.8
2017-Oct-14 21:25N 50°22' W 001°02'816.6
2017-Oct-14 20:58N 50°24' W 000°51'916.4
2017-Oct-14 20:26N 50°26' W 000°38'816.3
2017-Oct-14 19:57N 50°28' W 000°26'716.3
2017-Oct-14 19:30N 50°30' W 000°15'816.3
2017-Oct-14 19:00N 50°32' W 000°02'816.2
2017-Oct-14 18:30N 50°34' E 000°10'1016.4
2017-Oct-14 17:55N 50°36' E 000°25'716.1
2017-Oct-14 17:30N 50°38' E 000°35'816.1
2017-Oct-14 17:00N 50°43' E 000°45'816.2
2017-Oct-14 16:31N 50°48' E 000°55'1512.3
2017-Oct-14 15:15N 50°58' E 001°14'311.4
2017-Oct-14 14:57N 50°60' E 001°18'511.5
2017-Oct-14 14:30N 51°03' E 001°25'611.9
2017-Oct-14 14:00N 51°07' E 001°32'612.1
2017-Oct-14 13:30N 51°10' E 001°39'611.5
2017-Oct-14 13:00N 51°14' E 001°46'510.9
2017-Oct-14 12:30N 51°19' E 001°50'510.4
2017-Oct-14 12:00N 51°24' E 001°54'510.0
2017-Oct-14 11:30N 51°28' E 001°58'5 9.7
2017-Oct-14 11:00N 51°31' E 002°04'5 9.5
2017-Oct-14 10:30N 51°35' E 002°09'5 9.6
2017-Oct-14 10:00N 51°39' E 002°14'5 9.3
2017-Oct-14 09:30N 51°42' E 002°18'7112.5
2017-Oct-14 03:49N 52°37' E 003°32'516.3
2017-Oct-14 03:30N 52°42' E 003°37'816.2
2017-Oct-14 03:00N 52°48' E 003°45'816.1
2017-Oct-14 02:28N 52°55' E 003°54'5014.1
2017-Oct-13 22:55N 53°32' E 004°51'13215.1
2017-Oct-13 14:08N 53°59' E 008°30'514.9
2017-Oct-13 13:46N 53°57' E 008°38'516.3
2017-Oct-13 13:29N 53°53' E 008°43'815.9
2017-Oct-13 13:01N 53°51' E 008°55'816.8
2017-Oct-13 12:30N 53°53' E 009°08'611.8
2017-Oct-13 12:00N 53°52' E 009°18'918.2
2017-Oct-13 11:30N 53°44' E 009°27'816.7
2017-Oct-13 11:00N 53°37' E 009°34'714.7
2017-Oct-13 10:30N 53°34' E 009°45'3 5.8
2017-Oct-13 10:00N 53°33' E 009°50'0 0.0
2017-Oct-13 09:30N 53°33' E 009°50'0 0.0
2017-Oct-13 09:00N 53°33' E 009°50'0 0.0
2017-Oct-13 08:30N 53°33' E 009°50'0 0.0
2017-Oct-13 08:00N 53°33' E 009°50'0 0.0
2017-Oct-13 07:30N 53°33' E 009°50'0 0.0
2017-Oct-13 07:00N 53°33' E 009°50'0 0.0
2017-Oct-13 06:30N 53°33' E 009°50'0 0.0
2017-Oct-13 06:00N 53°33' E 009°50'0 0.0
2017-Oct-13 05:30N 53°33' E 009°50'0 0.0
2017-Oct-13 05:00N 53°33' E 009°50'0 0.0
2017-Oct-13 04:30N 53°33' E 009°50'2 3.7
2017-Oct-13 04:00N 53°33' E 009°47'611.8
2017-Oct-13 03:30N 53°35' E 009°37'713.5
2017-Oct-13 03:01N 53°40' E 009°30'714.3
2017-Oct-13 02:31N 53°46' E 009°24'714.8
2017-Oct-13 02:00N 53°52' E 009°16'611.9
2017-Oct-13 01:30N 53°53' E 009°06'815.2
2017-Oct-13 01:00N 53°50' E 008°54'713.8
2017-Oct-13 00:31N 53°53' E 008°43'13015.5
2017-Oct-12 16:04N 53°30' E 005°06'116.2
2017-Oct-12 16:01N 53°30' E 005°04'816.4
2017-Oct-12 15:30N 53°27' E 004°51'3315.9
2017-Oct-12 13:25N 52°59' E 004°20'716.4
2017-Oct-12 13:00N 52°53' E 004°15'815.9
2017-Oct-12 12:30N 52°47' E 004°08'711.9
2017-Oct-12 11:57N 52°43' E 003°60'611.3
2017-Oct-12 11:23N 52°39' E 003°51'8512.3
2017-Oct-12 04:31N 51°35' E 002°22'714.6
2017-Oct-12 04:00N 51°29' E 002°15'714.3
2017-Oct-12 03:31N 51°22' E 002°10'714.3
2017-Oct-12 03:01N 51°16' E 002°06'713.9
2017-Oct-12 02:31N 51°11' E 001°57'713.8
2017-Oct-12 02:01N 51°07' E 001°48'713.5
2017-Oct-12 01:31N 51°02' E 001°41'612.9
2017-Oct-12 01:01N 50°57' E 001°34'7012.2
2017-Oct-11 19:15N 50°19' E 000°01'412.4
2017-Oct-11 18:55N 50°18' W 000°05'712.3
2017-Oct-11 18:21N 50°16' W 000°15'23312.7
2017-Oct-11 00:00N 47°57' W 005°00'815.8
2017-Oct-10 23:30N 47°53' W 004°51'4015.7
2017-Oct-10 20:57N 47°34' W 003°58'715.8
2017-Oct-10 20:30N 47°32' W 003°48'611.8
2017-Oct-10 19:59N 47°29' W 003°39'510.1
2017-Oct-10 19:30N 47°27' W 003°33'510.3
2017-Oct-10 19:00N 47°23' W 003°29'610.3
2017-Oct-10 18:25N 47°17' W 003°25'410.2
2017-Oct-10 18:00N 47°15' W 003°19'510.1
2017-Oct-10 17:30N 47°13' W 003°13'7 9.8
2017-Oct-10 16:47N 47°09' W 003°04'25 8.6
2017-Oct-10 13:53N 47°04' W 002°28'4 9.9
2017-Oct-10 13:29N 47°06' W 002°24'510.9
2017-Oct-10 13:00N 47°10' W 002°18'915.7
2017-Oct-10 12:26N 47°17' W 002°10'0 0.2
2017-Oct-10 11:50N 47°17' W 002°10'0 0.0
2017-Oct-10 09:11N 47°17' W 002°10'0 0.0
2017-Oct-10 08:59N 47°17' W 002°10'0 0.0
2017-Oct-10 07:17N 47°17' W 002°10'0 0.0
2017-Oct-10 06:59N 47°17' W 002°10'0 0.0
2017-Oct-10 05:53N 47°17' W 002°10'0 0.0
2017-Oct-10 04:11N 47°17' W 002°10'0 0.0
2017-Oct-10 03:47N 47°17' W 002°10'0 0.0
2017-Oct-10 03:29N 47°17' W 002°10'0 0.0
2017-Oct-10 02:59N 47°17' W 002°10'0 0.0
2017-Oct-10 02:29N 47°17' W 002°10'0 0.0
2017-Oct-10 01:59N 47°17' W 002°10'0 0.0
2017-Oct-10 01:29N 47°17' W 002°10'8 0.4
2017-Oct-09 02:51N 47°11' W 002°18'3013.2
2017-Oct-09 00:34N 47°04' W 003°01'115.4
2017-Oct-09 00:30N 47°04' W 003°02'815.7
2017-Oct-08 23:58N 47°07' W 003°14'815.6
2017-Oct-08 23:28N 47°09' W 003°25'815.7
2017-Oct-08 22:56N 47°12' W 003°36'715.6
2017-Oct-08 22:30N 47°19' W 003°39'815.3
2017-Oct-08 22:00N 47°23' W 003°48'815.9
2017-Oct-08 21:30N 47°28' W 003°58'3016.3
2017-Oct-08 19:38N 47°44' W 004°35'716.5
2017-Oct-08 19:14N 47°48' W 004°43'416.9
2017-Oct-08 19:01N 47°51' W 004°47'917.5
2017-Oct-08 18:31N 47°56' W 004°58'916.9
2017-Oct-08 17:58N 48°01' W 005°09'1615.8
2017-Oct-08 16:59N 48°12' W 005°26'13910.8
2017-Oct-08 04:11N 49°56' W 003°04'317.8
2017-Oct-08 04:00N 49°56' W 002°59'10719.3
2017-Oct-07 22:25N 50°26' W 000°18'815.9
2017-Oct-07 21:55N 50°29' W 000°06'1315.4
2017-Oct-07 21:05N 50°32' E 000°14'215.4
2017-Oct-07 20:58N 50°33' E 000°16'715.5
2017-Oct-07 20:30N 50°35' E 000°27'915.1
2017-Oct-07 19:56N 50°37' E 000°40'715.4
2017-Oct-07 19:29N 50°41' E 000°50'816.3
2017-Oct-07 19:00N 50°45' E 000°59'1516.8
2017-Oct-07 18:08N 50°55' E 001°18'217.9
2017-Oct-07 18:00N 50°56' E 001°20'917.5
2017-Oct-07 17:30N 51°03' E 001°28'815.2
2017-Oct-07 17:00N 51°09' E 001°37'714.1
2017-Oct-07 16:31N 51°13' E 001°45'611.4
2017-Oct-07 16:00N 51°18' E 001°51'4 8.0
2017-Oct-07 15:30N 51°21' E 001°54'4 7.8
2017-Oct-07 15:00N 51°24' E 001°57'4 7.5
2017-Oct-07 14:30N 51°27' E 002°01'4 7.3
2017-Oct-07 14:00N 51°30' E 002°05'4 7.5
2017-Oct-07 13:29N 51°33' E 002°09'14 8.1
2017-Oct-07 11:47N 51°43' E 002°24'  
Track history (hours):
 
Tides and Currents Weather Stations Pressure Air Temp Water Temp Dewpoint Dewpoint Depression Visibility Wind Speed Wind Dir Waves Ship Positions

Ville De Bordeaux

Last reported at 2017-Oct-17 07:16 UTC. Time now 2017-Oct-17 07:46 UTC.
Position N 47°17' W 002°10'.

Length 150 m; beam 24 m.

Type: Ship. MMSI: 228084000.

Date/timePositionNaut miles runAvg speedWind from/ knotsBaromVisibWave heightAir tempDewpointWater temp
2017-Oct-17 07:16N 47°17' W 002°10'0 0.0
2017-Oct-17 06:52N 47°17' W 002°10'0 0.0
2017-Oct-17 06:28N 47°17' W 002°10'0 0.0
2017-Oct-17 05:58N 47°17' W 002°10'0 0.0
2017-Oct-17 05:22N 47°17' W 002°10'0 0.0
2017-Oct-17 04:52N 47°17' W 002°10'0 0.0
2017-Oct-17 04:28N 47°17' W 002°10'0 0.0
2017-Oct-17 03:52N 47°17' W 002°10'0 0.0
2017-Oct-17 03:28N 47°17' W 002°10'0 0.0
2017-Oct-17 02:58N 47°17' W 002°10'0 0.0
2017-Oct-17 02:22N 47°17' W 002°10'0 0.0
2017-Oct-17 01:58N 47°17' W 002°10'0 0.0
2017-Oct-17 01:28N 47°17' W 002°10'0 0.0
2017-Oct-17 00:58N 47°17' W 002°10'0 0.0
2017-Oct-17 00:28N 47°17' W 002°10'0 0.0
2017-Oct-16 23:52N 47°17' W 002°10'0 0.0
2017-Oct-16 23:28N 47°17' W 002°10'0 0.0
2017-Oct-16 22:58N 47°17' W 002°10'0 0.0
2017-Oct-16 22:28N 47°17' W 002°10'0 0.0
2017-Oct-16 21:58N 47°17' W 002°10'0 0.0
2017-Oct-16 21:28N 47°17' W 002°10'0 0.0
2017-Oct-16 20:52N 47°17' W 002°10'0 0.0
2017-Oct-16 20:28N 47°17' W 002°10'0 0.0
2017-Oct-16 19:58N 47°17' W 002°10'0 0.0
2017-Oct-16 19:28N 47°17' W 002°10'0 0.0
2017-Oct-16 18:58N 47°17' W 002°10'0 0.0
2017-Oct-16 18:22N 47°17' W 002°10'0 0.0
2017-Oct-16 17:04N 47°17' W 002°10'0 0.0
2017-Oct-16 16:52N 47°17' W 002°10'0 0.0
2017-Oct-16 16:04N 47°17' W 002°10'0 0.0
2017-Oct-16 15:58N 47°17' W 002°10'0 0.0
2017-Oct-16 08:04N 47°17' W 002°10'0 0.0
2017-Oct-16 07:34N 47°17' W 002°10'0 0.0
2017-Oct-16 07:16N 47°17' W 002°10'0 0.0
2017-Oct-16 05:58N 47°17' W 002°10'0 0.0
2017-Oct-16 05:16N 47°17' W 002°10'0 0.0
2017-Oct-16 04:59N 47°17' W 002°10'0 0.1
2017-Oct-16 04:30N 47°17' W 002°10'510.2
2017-Oct-16 04:00N 47°14' W 002°16'814.7
2017-Oct-16 03:30N 47°08' W 002°21'5 9.8
2017-Oct-16 03:01N 47°04' W 002°26'5 9.8
2017-Oct-16 02:30N 47°02' W 002°33'510.0
2017-Oct-16 02:00N 46°60' W 002°40'510.7
2017-Oct-16 01:30N 47°02' W 002°47'4 8.7
2017-Oct-16 01:00N 47°04' W 002°53'5 9.9
2017-Oct-16 00:30N 47°06' W 002°59'5 9.9
2017-Oct-15 23:58N 47°08' W 003°06'510.2
2017-Oct-15 23:27N 47°11' W 003°13'510.3
2017-Oct-15 23:00N 47°13' W 003°19'5 9.9
2017-Oct-15 22:31N 47°15' W 003°25'5 9.9
2017-Oct-15 22:01N 47°18' W 003°31'510.0
2017-Oct-15 21:30N 47°21' W 003°38'510.2
2017-Oct-15 21:00N 47°24' W 003°44'510.2
2017-Oct-15 20:31N 47°26' W 003°50'612.0
2017-Oct-15 20:00N 47°30' W 003°58'5 9.9
2017-Oct-15 19:31N 47°32' W 004°04'611.3
2017-Oct-15 19:01N 47°35' W 004°11'611.1
2017-Oct-15 18:31N 47°38' W 004°18'611.0
2017-Oct-15 18:00N 47°41' W 004°25'611.3
2017-Oct-15 17:31N 47°44' W 004°32'611.4
2017-Oct-15 17:00N 47°47' W 004°39'611.5
2017-Oct-15 16:30N 47°51' W 004°46'611.1
2017-Oct-15 16:00N 47°54' W 004°53'815.3
2017-Oct-15 15:30N 47°58' W 005°02'917.2
2017-Oct-15 15:00N 48°03' W 005°13'1616.4
2017-Oct-15 14:00N 48°15' W 005°30'1816.0
2017-Oct-15 12:54N 48°28' W 005°49'2713.4
2017-Oct-15 10:53N 48°54' W 005°41'3114.0
2017-Oct-15 08:40N 49°17' W 005°10'213.5
2017-Oct-15 08:30N 49°15' W 005°12'510.1
2017-Oct-15 08:00N 49°15' W 005°04'917.4
2017-Oct-15 07:31N 49°18' W 004°52'917.9
2017-Oct-15 07:00N 49°23' W 004°40'917.8
2017-Oct-15 06:29N 49°26' W 004°27'917.7
2017-Oct-15 05:59N 49°30' W 004°14'917.4
2017-Oct-15 05:28N 49°34' W 004°02'817.1
2017-Oct-15 05:00N 49°38' W 003°52'816.7
2017-Oct-15 04:30N 49°42' W 003°40'816.3
2017-Oct-15 03:59N 49°47' W 003°29'2415.6
2017-Oct-15 02:27N 49°59' W 002°57'715.1
2017-Oct-15 02:00N 50°00' W 002°47'2014.0
2017-Oct-15 00:34N 50°07' W 002°17'114.6
2017-Oct-15 00:30N 50°07' W 002°16'4015.9
2017-Oct-14 22:00N 50°19' W 001°17'1016.8
2017-Oct-14 21:25N 50°22' W 001°02'816.6
2017-Oct-14 20:58N 50°24' W 000°51'916.4
2017-Oct-14 20:26N 50°26' W 000°38'816.3
2017-Oct-14 19:57N 50°28' W 000°26'716.3
2017-Oct-14 19:30N 50°30' W 000°15'816.3
2017-Oct-14 19:00N 50°32' W 000°02'816.2
2017-Oct-14 18:30N 50°34' E 000°10'1016.4
2017-Oct-14 17:55N 50°36' E 000°25'716.1
2017-Oct-14 17:30N 50°38' E 000°35'816.1
2017-Oct-14 17:00N 50°43' E 000°45'816.2
2017-Oct-14 16:31N 50°48' E 000°55'1512.3
2017-Oct-14 15:15N 50°58' E 001°14'311.4
2017-Oct-14 14:57N 50°60' E 001°18'511.5
2017-Oct-14 14:30N 51°03' E 001°25'611.9
2017-Oct-14 14:00N 51°07' E 001°32'612.1
2017-Oct-14 13:30N 51°10' E 001°39'611.5
2017-Oct-14 13:00N 51°14' E 001°46'510.9
2017-Oct-14 12:30N 51°19' E 001°50'510.4
2017-Oct-14 12:00N 51°24' E 001°54'510.0
2017-Oct-14 11:30N 51°28' E 001°58'5 9.7
2017-Oct-14 11:00N 51°31' E 002°04'5 9.5
2017-Oct-14 10:30N 51°35' E 002°09'5 9.6
2017-Oct-14 10:00N 51°39' E 002°14'5 9.3
2017-Oct-14 09:30N 51°42' E 002°18'7112.5
2017-Oct-14 03:49N 52°37' E 003°32'516.3
2017-Oct-14 03:30N 52°42' E 003°37'816.2
2017-Oct-14 03:00N 52°48' E 003°45'816.1
2017-Oct-14 02:28N 52°55' E 003°54'5014.1
2017-Oct-13 22:55N 53°32' E 004°51'13215.1
2017-Oct-13 14:08N 53°59' E 008°30'514.9
2017-Oct-13 13:46N 53°57' E 008°38'516.3
2017-Oct-13 13:29N 53°53' E 008°43'815.9
2017-Oct-13 13:01N 53°51' E 008°55'816.8
2017-Oct-13 12:30N 53°53' E 009°08'611.8
2017-Oct-13 12:00N 53°52' E 009°18'918.2
2017-Oct-13 11:30N 53°44' E 009°27'816.7
2017-Oct-13 11:00N 53°37' E 009°34'714.7
2017-Oct-13 10:30N 53°34' E 009°45'3 5.8
2017-Oct-13 10:00N 53°33' E 009°50'0 0.0
2017-Oct-13 09:30N 53°33' E 009°50'0 0.0
2017-Oct-13 09:00N 53°33' E 009°50'0 0.0
2017-Oct-13 08:30N 53°33' E 009°50'0 0.0
2017-Oct-13 08:00N 53°33' E 009°50'0 0.0
2017-Oct-13 07:30N 53°33' E 009°50'0 0.0
2017-Oct-13 07:00N 53°33' E 009°50'0 0.0
2017-Oct-13 06:30N 53°33' E 009°50'0 0.0
2017-Oct-13 06:00N 53°33' E 009°50'0 0.0
2017-Oct-13 05:30N 53°33' E 009°50'0 0.0
2017-Oct-13 05:00N 53°33' E 009°50'0 0.0
2017-Oct-13 04:30N 53°33' E 009°50'2 3.7
2017-Oct-13 04:00N 53°33' E 009°47'611.8
2017-Oct-13 03:30N 53°35' E 009°37'713.5
2017-Oct-13 03:01N 53°40' E 009°30'714.3
2017-Oct-13 02:31N 53°46' E 009°24'714.8
2017-Oct-13 02:00N 53°52' E 009°16'611.9
2017-Oct-13 01:30N 53°53' E 009°06'815.2
2017-Oct-13 01:00N 53°50' E 008°54'713.8
2017-Oct-13 00:31N 53°53' E 008°43'13015.5
2017-Oct-12 16:04N 53°30' E 005°06'116.2
2017-Oct-12 16:01N 53°30' E 005°04'816.4
2017-Oct-12 15:30N 53°27' E 004°51'3315.9
2017-Oct-12 13:25N 52°59' E 004°20'716.4
2017-Oct-12 13:00N 52°53' E 004°15'815.9
2017-Oct-12 12:30N 52°47' E 004°08'711.9
2017-Oct-12 11:57N 52°43' E 003°60'611.3
2017-Oct-12 11:23N 52°39' E 003°51'8512.3
2017-Oct-12 04:31N 51°35' E 002°22'714.6
2017-Oct-12 04:00N 51°29' E 002°15'714.3
2017-Oct-12 03:31N 51°22' E 002°10'714.3
2017-Oct-12 03:01N 51°16' E 002°06'713.9
2017-Oct-12 02:31N 51°11' E 001°57'713.8
2017-Oct-12 02:01N 51°07' E 001°48'713.5
2017-Oct-12 01:31N 51°02' E 001°41'612.9
2017-Oct-12 01:01N 50°57' E 001°34'7012.2
2017-Oct-11 19:15N 50°19' E 000°01'412.4
2017-Oct-11 18:55N 50°18' W 000°05'712.3
2017-Oct-11 18:21N 50°16' W 000°15'23312.7
2017-Oct-11 00:00N 47°57' W 005°00'815.8
2017-Oct-10 23:30N 47°53' W 004°51'4015.7
2017-Oct-10 20:57N 47°34' W 003°58'715.8
2017-Oct-10 20:30N 47°32' W 003°48'611.8
2017-Oct-10 19:59N 47°29' W 003°39'510.1
2017-Oct-10 19:30N 47°27' W 003°33'510.3
2017-Oct-10 19:00N 47°23' W 003°29'610.3
2017-Oct-10 18:25N 47°17' W 003°25'410.2
2017-Oct-10 18:00N 47°15' W 003°19'510.1
2017-Oct-10 17:30N 47°13' W 003°13'7 9.8
2017-Oct-10 16:47N 47°09' W 003°04'25 8.6
2017-Oct-10 13:53N 47°04' W 002°28'4 9.9
2017-Oct-10 13:29N 47°06' W 002°24'510.9
2017-Oct-10 13:00N 47°10' W 002°18'915.7
2017-Oct-10 12:26N 47°17' W 002°10'0 0.2
2017-Oct-10 11:50N 47°17' W 002°10'0 0.0
2017-Oct-10 09:11N 47°17' W 002°10'0 0.0
2017-Oct-10 08:59N 47°17' W 002°10'0 0.0
2017-Oct-10 07:17N 47°17' W 002°10'0 0.0
2017-Oct-10 06:59N 47°17' W 002°10'0 0.0
2017-Oct-10 05:53N 47°17' W 002°10'0 0.0
2017-Oct-10 04:11N 47°17' W 002°10'0 0.0
2017-Oct-10 03:47N 47°17' W 002°10'0 0.0
2017-Oct-10 03:29N 47°17' W 002°10'0 0.0
2017-Oct-10 02:59N 47°17' W 002°10'0 0.0
2017-Oct-10 02:29N 47°17' W 002°10'0 0.0
2017-Oct-10 01:59N 47°17' W 002°10'0 0.0
2017-Oct-10 01:29N 47°17' W 002°10'8 0.4
2017-Oct-09 02:51N 47°11' W 002°18'3013.2
2017-Oct-09 00:34N 47°04' W 003°01'115.4
2017-Oct-09 00:30N 47°04' W 003°02'815.7
2017-Oct-08 23:58N 47°07' W 003°14'815.6
2017-Oct-08 23:28N 47°09' W 003°25'815.7
2017-Oct-08 22:56N 47°12' W 003°36'715.6
2017-Oct-08 22:30N 47°19' W 003°39'815.3
2017-Oct-08 22:00N 47°23' W 003°48'815.9
2017-Oct-08 21:30N 47°28' W 003°58'3016.3
2017-Oct-08 19:38N 47°44' W 004°35'716.5
2017-Oct-08 19:14N 47°48' W 004°43'416.9
2017-Oct-08 19:01N 47°51' W 004°47'917.5
2017-Oct-08 18:31N 47°56' W 004°58'916.9
2017-Oct-08 17:58N 48°01' W 005°09'1615.8
2017-Oct-08 16:59N 48°12' W 005°26'13910.8
2017-Oct-08 04:11N 49°56' W 003°04'317.8
2017-Oct-08 04:00N 49°56' W 002°59'10719.3
2017-Oct-07 22:25N 50°26' W 000°18'815.9
2017-Oct-07 21:55N 50°29' W 000°06'1315.4
2017-Oct-07 21:05N 50°32' E 000°14'215.4
2017-Oct-07 20:58N 50°33' E 000°16'715.5
2017-Oct-07 20:30N 50°35' E 000°27'915.1
2017-Oct-07 19:56N 50°37' E 000°40'715.4
2017-Oct-07 19:29N 50°41' E 000°50'816.3
2017-Oct-07 19:00N 50°45' E 000°59'1516.8
2017-Oct-07 18:08N 50°55' E 001°18'217.9
2017-Oct-07 18:00N 50°56' E 001°20'917.5
2017-Oct-07 17:30N 51°03' E 001°28'815.2
2017-Oct-07 17:00N 51°09' E 001°37'714.1
2017-Oct-07 16:31N 51°13' E 001°45'611.4
2017-Oct-07 16:00N 51°18' E 001°51'4 8.0
2017-Oct-07 15:30N 51°21' E 001°54'4 7.8
2017-Oct-07 15:00N 51°24' E 001°57'4 7.5
2017-Oct-07 14:30N 51°27' E 002°01'4 7.3
2017-Oct-07 14:00N 51°30' E 002°05'4 7.5
2017-Oct-07 13:29N 51°33' E 002°09'14 8.1
2017-Oct-07 11:47N 51°43' E 002°24'  

Dump ship's entire track history